PMI weather

Palma De Mallorca Airport
Palma De Mallorca, Baleares, Spain

Public forecast

Using degrees Celsius for public forecast. Weather courtesy of forecast.io.

Current aviation weather report (METAR) for Palma De Mallorca Airport

Retrieved 2020/04/05 14:00 UTC (2 minutes ago):

LEPA 051400Z 24011KT 9999 FEW025 18/11 Q1020 NOSIG

Aviation forecast (TAF) for Palma De Mallorca Airport

Retrieved 2020/04/05 12:27 UTC (2 hours ago):

TAF TAF LEPA 051100Z 0512/0612 22012KT 9999 FEW030 TX20/0512Z TN08/0606Z BECMG 0518/0520 04004KT BECMG 0609/0611 22012KT